createdAt,value
2022-10-05T00:00:14.106Z,27.80
2022-10-05T00:03:15.713Z,28.70
2022-10-05T00:05:57.813Z,23.90
2022-10-05T00:08:39.505Z,26.60
2022-10-05T00:11:21.196Z,32.10
2022-10-05T00:14:14.765Z,27.20
2022-10-05T00:16:57.672Z,28.40
2022-10-05T00:19:39.785Z,26.50
2022-10-05T00:22:24.753Z,28.80
2022-10-05T00:25:14.942Z,24.10
2022-10-05T00:27:59.426Z,22.70
2022-10-05T00:30:41.090Z,24.10
2022-10-05T00:33:23.088Z,26.10
2022-10-05T00:36:07.135Z,25.30
2022-10-05T00:38:49.542Z,26.60
2022-10-05T00:41:56.321Z,23.10
2022-10-05T00:45:05.020Z,22.70
2022-10-05T00:48:04.265Z,22.10
2022-10-05T00:51:07.851Z,26.20
2022-10-05T00:54:02.240Z,23.60
2022-10-05T00:56:56.015Z,26.70
2022-10-05T01:00:08.943Z,24.70
2022-10-05T01:03:03.735Z,28.60
2022-10-05T01:06:08.265Z,27.80
2022-10-05T01:09:07.874Z,28.20
2022-10-05T01:11:58.111Z,29.20
2022-10-05T01:14:55.967Z,24.00
2022-10-05T01:17:44.972Z,25.10
2022-10-05T01:20:34.061Z,24.00
2022-10-05T01:23:43.503Z,24.70
2022-10-05T01:26:45.335Z,26.50
2022-10-05T01:29:52.964Z,27.20
2022-10-05T01:32:42.747Z,26.00
2022-10-05T01:35:28.643Z,23.30
2022-10-05T01:38:47.805Z,20.80
2022-10-05T01:41:57.655Z,25.10
2022-10-05T01:45:02.284Z,24.90
2022-10-05T01:47:45.714Z,24.70
2022-10-05T01:50:47.683Z,20.70
2022-10-05T01:53:41.660Z,20.60
2022-10-05T01:56:46.835Z,23.40
2022-10-05T01:59:53.887Z,20.70
2022-10-05T02:02:40.060Z,23.50
2022-10-05T02:05:26.799Z,25.00
2022-10-05T02:08:16.780Z,21.80
2022-10-05T02:11:07.599Z,21.80
2022-10-05T02:13:56.236Z,17.60
2022-10-05T02:16:44.160Z,22.70
2022-10-05T02:19:40.919Z,18.80
2022-10-05T02:22:44.028Z,21.30
2022-10-05T02:25:31.436Z,22.80
2022-10-05T02:28:37.967Z,20.40
2022-10-05T02:31:25.177Z,23.10
2022-10-05T02:34:40.099Z,18.50
2022-10-05T02:37:54.456Z,21.50
2022-10-05T02:41:01.644Z,18.80
2022-10-05T02:44:01.052Z,19.40
2022-10-05T02:46:56.179Z,21.50
2022-10-05T02:49:47.984Z,20.90
2022-10-05T02:52:39.626Z,20.40
2022-10-05T02:55:47.503Z,19.60
2022-10-05T02:58:39.241Z,21.70
2022-10-05T03:01:41.522Z,21.40
2022-10-05T03:04:37.747Z,18.60
2022-10-05T03:07:29.778Z,19.20
2022-10-05T03:10:21.712Z,21.50
2022-10-05T03:13:21.633Z,19.20
2022-10-05T03:16:25.405Z,19.20
2022-10-05T03:19:33.864Z,19.00
2022-10-05T03:22:41.556Z,19.40
2022-10-05T03:25:47.003Z,21.50
2022-10-05T03:28:45.079Z,19.30
2022-10-05T03:31:38.840Z,22.70
2022-10-05T03:34:44.813Z,18.90
2022-10-05T03:37:53.646Z,21.40
2022-10-05T03:40:47.517Z,21.20
2022-10-05T03:44:00.133Z,20.50
2022-10-05T03:47:07.935Z,20.60
2022-10-05T03:50:14.816Z,18.20
2022-10-05T03:53:03.863Z,23.20
2022-10-05T03:55:53.765Z,25.90
2022-10-05T03:58:46.309Z,23.50
2022-10-05T04:02:03.329Z,21.30
2022-10-05T04:05:00.281Z,17.50
2022-10-05T04:08:11.972Z,47.60
2022-10-05T04:11:02.161Z,24.50
2022-10-05T04:14:09.759Z,77.60
2022-10-05T04:17:11.931Z,67.20
2022-10-05T04:20:01.709Z,51.60
2022-10-05T04:23:07.981Z,200.80
2022-10-05T04:25:59.531Z,169.50
2022-10-05T04:29:07.815Z,84.10
2022-10-05T04:32:16.046Z,52.60
2022-10-05T04:35:29.155Z,32.50
2022-10-05T04:38:32.250Z,25.60
2022-10-05T04:41:31.861Z,25.00
2022-10-05T04:44:35.876Z,30.80
2022-10-05T04:47:35.588Z,27.10
2022-10-05T04:50:41.854Z,40.50
2022-10-05T04:53:31.914Z,143.40
2022-10-05T04:56:45.232Z,118.80
2022-10-05T04:59:30.242Z,72.50
2022-10-05T05:02:31.859Z,54.60
2022-10-05T05:05:58.762Z,41.30
2022-10-05T05:09:22.738Z,35.10
2022-10-05T05:12:25.831Z,27.60
2022-10-05T05:15:32.399Z,29.40
2022-10-05T05:18:34.880Z,48.90
2022-10-05T05:21:25.662Z,240.10
2022-10-05T05:24:26.728Z,222.30
2022-10-05T05:27:20.813Z,109.80
2022-10-05T05:30:15.064Z,48.30
2022-10-05T05:33:19.027Z,42.30
2022-10-05T05:36:39.919Z,40.60
2022-10-05T05:40:03.287Z,45.40
2022-10-05T05:43:02.915Z,29.80
2022-10-05T05:45:54.418Z,29.70
2022-10-05T05:48:40.310Z,28.80
2022-10-05T05:51:33.263Z,29.70
2022-10-05T05:54:28.163Z,23.70
2022-10-05T05:57:20.095Z,34.20
2022-10-05T06:00:16.534Z,49.30
2022-10-05T06:03:21.280Z,37.90
2022-10-05T06:06:10.950Z,39.90
2022-10-05T06:09:03.593Z,46.50
2022-10-05T06:12:06.298Z,27.20
2022-10-05T06:17:40.704Z,20.50
2022-10-05T06:20:42.782Z,25.90
2022-10-05T06:23:41.368Z,59.50
2022-10-05T06:26:42.210Z,39.60
2022-10-05T06:29:31.073Z,26.90
2022-10-05T06:32:33.755Z,27.50
2022-10-05T06:35:53.662Z,49.40
2022-10-05T06:38:52.125Z,20.90
2022-10-05T06:41:45.822Z,25.10
2022-10-05T06:44:59.239Z,26.40
2022-10-05T06:48:05.672Z,22.30
2022-10-05T06:51:32.703Z,23.60
2022-10-05T06:54:57.397Z,16.20
2022-10-05T06:57:54.123Z,19.50
2022-10-05T07:00:51.003Z,17.20
2022-10-05T07:04:01.202Z,20.00
2022-10-05T07:06:48.163Z,19.50
2022-10-05T07:09:41.377Z,17.60
2022-10-05T07:12:56.963Z,17.20
2022-10-05T07:15:45.002Z,18.50
2022-10-05T07:18:48.301Z,19.60
2022-10-05T07:21:45.806Z,18.00
2022-10-05T07:24:34.553Z,15.60
2022-10-05T07:27:21.230Z,19.50
2022-10-05T07:30:14.288Z,17.00
2022-10-05T07:33:09.594Z,15.50
2022-10-05T07:36:22.176Z,16.70
2022-10-05T07:39:55.380Z,17.00
2022-10-05T07:42:51.793Z,21.60
2022-10-05T07:45:56.127Z,16.00
2022-10-05T07:48:38.060Z,16.30
2022-10-05T07:51:36.239Z,22.20
2022-10-05T07:54:27.557Z,17.50
2022-10-05T07:57:44.693Z,16.50
2022-10-05T08:00:43.366Z,15.60
2022-10-05T08:03:49.896Z,15.30
2022-10-05T08:06:37.983Z,14.70
2022-10-05T08:09:54.194Z,18.70
2022-10-05T08:12:59.118Z,21.90
2022-10-05T08:15:46.063Z,13.50
2022-10-05T08:18:59.464Z,13.00
2022-10-05T08:22:05.323Z,14.30
2022-10-05T08:24:59.506Z,14.70
2022-10-05T08:27:53.551Z,13.10
2022-10-05T08:30:52.124Z,13.70
2022-10-05T08:34:03.941Z,14.50
2022-10-05T08:37:07.139Z,15.50
2022-10-05T08:40:00.625Z,14.30
2022-10-05T08:43:00.203Z,15.80
2022-10-05T08:45:50.564Z,16.80
2022-10-05T08:52:11.263Z,15.00
2022-10-05T08:55:04.833Z,12.00
2022-10-05T08:58:04.866Z,13.70
2022-10-05T09:01:14.827Z,15.50
2022-10-05T09:04:25.477Z,15.50
2022-10-05T09:10:33.404Z,9.90
2022-10-05T09:13:53.497Z,13.80
2022-10-05T09:17:06.213Z,11.40
2022-10-05T09:19:59.578Z,16.30
2022-10-05T09:23:12.736Z,11.50
2022-10-05T09:26:04.759Z,12.10
2022-10-05T09:28:58.306Z,11.80
2022-10-05T09:31:46.313Z,12.10
2022-10-05T09:34:47.907Z,12.50
2022-10-05T09:37:50.280Z,20.00
2022-10-05T09:41:01.564Z,15.40
2022-10-05T09:44:15.328Z,17.90
2022-10-05T09:47:36.936Z,10.70
2022-10-05T09:50:41.869Z,12.00
2022-10-05T09:53:49.980Z,9.70
2022-10-05T09:57:04.291Z,10.30
2022-10-05T10:00:21.766Z,12.30
2022-10-05T10:03:25.305Z,9.80
2022-10-05T10:06:14.355Z,10.60
2022-10-05T10:09:22.852Z,14.30
2022-10-05T10:12:33.317Z,16.40
2022-10-05T10:15:57.845Z,9.80
2022-10-05T10:19:20.056Z,10.30
2022-10-05T10:22:30.519Z,13.10
2022-10-05T10:25:37.197Z,11.30
2022-10-05T10:28:47.663Z,11.80
2022-10-05T10:31:45.904Z,13.50
2022-10-05T10:34:44.937Z,12.30
2022-10-05T10:37:42.570Z,17.60
2022-10-05T10:40:42.624Z,16.50
2022-10-05T10:43:39.368Z,14.60
2022-10-05T10:46:46.513Z,11.80
2022-10-05T10:49:58.568Z,13.00
2022-10-05T10:53:11.380Z,11.10
2022-10-05T10:56:26.761Z,13.40
2022-10-05T10:59:35.483Z,10.30
2022-10-05T11:02:30.127Z,11.40
2022-10-05T11:05:38.087Z,10.90
2022-10-05T11:08:34.932Z,11.10
2022-10-05T11:11:22.766Z,15.40
2022-10-05T11:14:13.674Z,12.70
2022-10-05T11:17:29.573Z,12.60
2022-10-05T11:20:23.251Z,10.40
2022-10-05T11:23:39.237Z,10.70
2022-10-05T11:26:58.096Z,10.00
2022-10-05T11:30:14.911Z,15.40
2022-10-05T11:33:29.476Z,14.60
2022-10-05T11:36:30.108Z,13.70
2022-10-05T11:39:30.440Z,12.80
2022-10-05T11:45:33.444Z,9.30
2022-10-05T11:48:33.364Z,10.20
2022-10-05T11:51:35.540Z,11.20
2022-10-05T11:54:52.107Z,9.50
2022-10-05T11:57:43.218Z,11.70
2022-10-05T12:00:34.675Z,12.80
2022-10-05T12:03:36.116Z,11.50
2022-10-05T12:06:47.540Z,8.50
2022-10-05T12:10:17.630Z,11.10
2022-10-05T12:13:30.463Z,9.00
2022-10-05T12:16:23.358Z,13.20
2022-10-05T12:19:16.679Z,11.70
2022-10-05T12:22:15.582Z,11.20
2022-10-05T12:25:14.777Z,10.60
2022-10-05T12:28:08.293Z,14.20
2022-10-05T12:31:25.486Z,19.30
2022-10-05T12:34:16.682Z,13.40
2022-10-05T12:37:28.785Z,17.20
2022-10-05T12:40:34.131Z,12.10
2022-10-05T12:43:32.512Z,10.80
2022-10-05T12:46:26.286Z,11.50
2022-10-05T12:49:32.759Z,31.20
2022-10-05T12:52:32.780Z,20.00
2022-10-05T12:55:35.258Z,17.70
2022-10-05T12:58:22.889Z,15.30
2022-10-05T13:01:36.266Z,16.70
2022-10-05T13:04:40.542Z,11.70
2022-10-05T13:07:38.720Z,10.60
2022-10-05T13:10:35.692Z,11.40
2022-10-05T13:13:34.461Z,14.50
2022-10-05T13:16:24.598Z,11.50
2022-10-05T13:19:19.515Z,14.10
2022-10-05T13:22:06.405Z,8.70
2022-10-05T13:25:00.528Z,12.80
2022-10-05T13:28:07.798Z,11.70
2022-10-05T13:30:57.617Z,15.30
2022-10-05T13:33:58.662Z,10.60
2022-10-05T13:37:17.501Z,11.40
2022-10-05T13:40:23.281Z,10.30
2022-10-05T13:43:24.190Z,10.20
2022-10-05T13:46:18.204Z,11.00
2022-10-05T13:49:32.044Z,13.60
2022-10-05T13:52:30.734Z,13.50
2022-10-05T13:55:22.870Z,9.50
2022-10-05T13:58:33.337Z,11.70
2022-10-05T14:01:23.731Z,12.00
2022-10-05T14:06:52.849Z,15.10
2022-10-05T14:09:35.463Z,10.90
2022-10-05T14:12:22.431Z,11.20
2022-10-05T14:15:18.913Z,11.20
2022-10-05T14:18:17.910Z,11.80
2022-10-05T14:21:08.508Z,10.20
2022-10-05T14:23:51.838Z,13.90
2022-10-05T14:26:36.403Z,11.60
2022-10-05T14:29:23.718Z,9.90
2022-10-05T14:32:14.959Z,11.20
2022-10-05T14:35:05.330Z,13.70
2022-10-05T14:37:50.743Z,13.60
2022-10-05T14:40:37.413Z,12.20
2022-10-05T14:43:20.849Z,9.20
2022-10-05T14:46:25.003Z,12.20
2022-10-05T14:49:23.241Z,11.20
2022-10-05T14:52:33.196Z,15.80
2022-10-05T14:55:30.567Z,12.30
2022-10-05T14:58:27.501Z,11.20
2022-10-05T15:01:24.277Z,8.50
2022-10-05T15:04:20.816Z,10.10
2022-10-05T15:07:27.597Z,10.00
2022-10-05T15:10:30.554Z,11.80
2022-10-05T15:13:19.734Z,10.70
2022-10-05T15:16:25.043Z,8.20
2022-10-05T15:19:16.901Z,9.70
2022-10-05T15:22:11.077Z,16.20
2022-10-05T15:25:17.140Z,12.20
2022-10-05T15:28:24.279Z,13.90
2022-10-05T15:31:31.089Z,20.20
2022-10-05T15:34:27.658Z,14.30
2022-10-05T15:37:21.027Z,12.30
2022-10-05T15:40:09.372Z,16.90
2022-10-05T15:43:02.462Z,14.90
2022-10-05T15:46:17.354Z,15.20
2022-10-05T15:49:09.281Z,14.20
2022-10-05T15:52:29.322Z,20.20
2022-10-05T15:55:39.310Z,13.90
2022-10-05T15:58:42.688Z,16.90
2022-10-05T16:01:31.188Z,19.50
2022-10-05T16:05:04.818Z,13.70
2022-10-05T16:08:12.318Z,18.00
2022-10-05T16:10:54.333Z,14.40
2022-10-05T16:13:47.168Z,12.70
2022-10-05T16:16:45.379Z,14.70
2022-10-05T16:19:48.949Z,15.90
2022-10-05T16:23:21.872Z,10.50
2022-10-05T16:26:10.339Z,10.80
2022-10-05T16:29:12.923Z,11.80
2022-10-05T16:32:06.337Z,11.80
2022-10-05T16:34:56.528Z,11.30
2022-10-05T16:38:15.405Z,11.30
2022-10-05T16:41:08.344Z,11.40
2022-10-05T16:44:24.442Z,9.40
2022-10-05T16:47:33.785Z,10.00
2022-10-05T16:50:41.685Z,10.30
2022-10-05T16:53:40.124Z,10.40
2022-10-05T16:56:28.006Z,11.50
2022-10-05T16:59:38.062Z,11.00
2022-10-05T17:02:42.040Z,14.30
2022-10-05T17:05:45.189Z,14.60
2022-10-05T17:08:47.416Z,12.80
2022-10-05T17:11:53.915Z,11.90
2022-10-05T17:15:17.487Z,15.80
2022-10-05T17:18:02.553Z,13.90
2022-10-05T17:20:54.897Z,15.20
2022-10-05T17:23:54.702Z,13.70
2022-10-05T17:26:46.356Z,29.90
2022-10-05T17:30:13.596Z,46.70
2022-10-05T17:33:18.943Z,24.80
2022-10-05T17:36:05.035Z,20.50
2022-10-05T17:38:51.673Z,20.40
2022-10-05T17:41:33.640Z,22.80
2022-10-05T17:44:19.613Z,22.50
2022-10-05T17:47:04.686Z,22.10
2022-10-05T17:50:17.020Z,19.30
2022-10-05T17:53:40.583Z,19.20
2022-10-05T17:56:24.281Z,16.40
2022-10-05T17:59:09.906Z,19.00
2022-10-05T18:02:41.094Z,17.80
2022-10-05T18:05:28.487Z,16.50
2022-10-05T18:08:13.963Z,15.60
2022-10-05T18:11:37.141Z,17.10
2022-10-05T18:14:25.895Z,15.10
2022-10-05T18:17:13.028Z,18.70
2022-10-05T18:20:15.682Z,20.20
2022-10-05T18:23:03.699Z,18.50
2022-10-05T18:26:08.046Z,27.60
2022-10-05T18:29:15.228Z,30.90
2022-10-05T18:32:07.629Z,30.90
2022-10-05T18:35:01.951Z,24.20
2022-10-05T18:38:06.373Z,22.20
2022-10-05T18:41:03.446Z,21.80
2022-10-05T18:44:04.281Z,26.20
2022-10-05T18:47:34.882Z,23.30
2022-10-05T18:50:35.531Z,26.40
2022-10-05T18:53:41.917Z,27.90
2022-10-05T18:56:49.721Z,30.30
2022-10-05T18:59:44.622Z,24.80
2022-10-05T19:02:43.944Z,17.80
2022-10-05T19:05:48.070Z,15.00
2022-10-05T19:09:01.602Z,17.00
2022-10-05T19:12:05.789Z,16.60
2022-10-05T19:14:54.691Z,15.40
2022-10-05T19:18:06.488Z,14.20
2022-10-05T19:21:12.409Z,15.40
2022-10-05T19:24:28.308Z,16.90
2022-10-05T19:27:56.343Z,15.20
2022-10-05T19:31:02.524Z,12.90
2022-10-05T19:34:23.532Z,14.40
2022-10-05T19:37:16.133Z,14.40
2022-10-05T19:40:11.835Z,13.80
2022-10-05T19:43:00.974Z,14.50
2022-10-05T19:45:55.544Z,14.30
2022-10-05T19:48:50.835Z,17.40
2022-10-05T19:51:47.126Z,16.60
2022-10-05T19:54:30.561Z,19.40
2022-10-05T19:57:18.855Z,18.00
2022-10-05T20:00:00.701Z,19.60
2022-10-05T20:02:42.426Z,19.10
2022-10-05T20:05:24.390Z,17.50
2022-10-05T20:08:06.811Z,18.70
2022-10-05T20:11:07.852Z,18.70
2022-10-05T20:13:52.401Z,17.60
2022-10-05T20:16:54.066Z,16.30
2022-10-05T20:19:57.571Z,19.60
2022-10-05T20:22:46.730Z,16.40
2022-10-05T20:25:30.266Z,17.80
2022-10-05T20:28:11.982Z,20.10
2022-10-05T20:30:55.484Z,19.30
2022-10-05T20:33:40.457Z,20.50
2022-10-05T20:36:22.492Z,21.20
2022-10-05T20:39:05.435Z,22.40
2022-10-05T20:41:48.189Z,20.10
2022-10-05T20:44:31.054Z,19.40
2022-10-05T20:47:16.774Z,26.10
2022-10-05T20:49:58.691Z,22.20
2022-10-05T20:52:40.688Z,22.30
2022-10-05T20:55:22.793Z,19.50
2022-10-05T20:58:04.583Z,18.40
2022-10-05T21:01:05.138Z,17.10
2022-10-05T21:06:29.828Z,18.40
2022-10-05T21:09:15.063Z,19.20
2022-10-05T21:11:56.794Z,19.30
2022-10-05T21:14:38.793Z,17.20
2022-10-05T21:17:20.484Z,18.00
2022-10-05T21:20:02.389Z,17.00
2022-10-05T21:22:44.220Z,17.30
2022-10-05T21:25:25.966Z,18.70
2022-10-05T21:28:08.110Z,15.60
2022-10-05T21:30:49.988Z,17.60
2022-10-05T21:33:31.856Z,14.60
2022-10-05T21:36:17.169Z,17.30
2022-10-05T21:38:59.441Z,19.70
2022-10-05T21:41:41.073Z,21.10
2022-10-05T21:44:22.716Z,17.40
2022-10-05T21:47:05.636Z,18.40
2022-10-05T21:49:47.327Z,17.40
2022-10-05T21:52:29.823Z,19.40
2022-10-05T21:55:11.552Z,18.70
2022-10-05T21:57:55.850Z,18.90
2022-10-05T22:00:37.512Z,16.50
2022-10-05T22:03:20.141Z,18.70
2022-10-05T22:06:03.809Z,20.00
2022-10-05T22:08:45.837Z,17.60
2022-10-05T22:11:29.208Z,18.50
2022-10-05T22:14:11.454Z,17.10
2022-10-05T22:16:54.254Z,17.70
2022-10-05T22:19:36.066Z,17.20
2022-10-05T22:22:17.756Z,17.40
2022-10-05T22:25:00.163Z,16.00
2022-10-05T22:27:43.154Z,16.00
2022-10-05T22:30:24.773Z,19.20
2022-10-05T22:33:06.466Z,18.10
2022-10-05T22:35:48.156Z,17.90
2022-10-05T22:38:30.829Z,17.80
2022-10-05T22:41:14.598Z,16.10
2022-10-05T22:43:56.199Z,16.40
2022-10-05T22:46:37.889Z,14.90
2022-10-05T22:49:20.092Z,18.50
2022-10-05T22:52:01.682Z,13.80
2022-10-05T22:54:43.376Z,20.20
2022-10-05T22:57:25.062Z,18.90
2022-10-05T23:00:07.983Z,16.30
2022-10-05T23:02:50.737Z,14.90
2022-10-05T23:05:32.490Z,18.10
2022-10-05T23:08:14.182Z,15.60
2022-10-05T23:11:00.992Z,16.50
2022-10-05T23:13:42.682Z,17.50
2022-10-05T23:16:27.664Z,16.10
2022-10-05T23:19:09.444Z,13.80
2022-10-05T23:21:51.137Z,18.60
2022-10-05T23:24:32.928Z,14.00
2022-10-05T23:27:14.619Z,14.40
2022-10-05T23:29:56.310Z,14.70
2022-10-05T23:32:40.253Z,16.90
2022-10-05T23:35:21.841Z,13.50
2022-10-05T23:38:03.945Z,15.10
2022-10-05T23:40:47.648Z,13.80
2022-10-05T23:43:29.987Z,16.40
2022-10-05T23:46:12.872Z,15.10
2022-10-05T23:48:54.598Z,16.40
2022-10-05T23:51:36.493Z,15.80
2022-10-05T23:54:18.184Z,14.60
2022-10-05T23:56:59.875Z,16.10
2022-10-05T23:59:41.565Z,16.80
